createdAt,value
2016-11-12T00:00:11.177Z,0
2016-11-12T00:01:10.838Z,0
2016-11-12T00:02:11.124Z,0
2016-11-12T00:03:10.784Z,0
2016-11-12T00:04:10.762Z,0
2016-11-12T00:05:10.746Z,0
2016-11-12T00:06:10.712Z,0
2016-11-12T00:07:10.693Z,0
2016-11-12T00:08:10.665Z,0
2016-11-12T00:09:10.647Z,0
2016-11-12T00:10:10.952Z,0
2016-11-12T00:11:10.596Z,0
2016-11-12T00:12:10.573Z,0
2016-11-12T00:13:10.547Z,0
2016-11-12T00:14:10.580Z,0
2016-11-12T00:15:10.506Z,0
2016-11-12T00:16:10.479Z,0
2016-11-12T00:17:10.459Z,0
2016-11-12T00:18:10.432Z,0
2016-11-12T00:19:10.405Z,0
2016-11-12T00:20:10.700Z,0
2016-11-12T00:21:10.361Z,0
2016-11-12T00:22:10.344Z,0
2016-11-12T00:23:10.320Z,0
2016-11-12T00:24:10.297Z,0
2016-11-12T00:25:10.585Z,0
2016-11-12T00:26:10.244Z,0
2016-11-12T00:27:10.217Z,0
2016-11-12T00:28:10.193Z,0
2016-11-12T00:29:10.177Z,0
2016-11-12T00:30:10.460Z,0
2016-11-12T00:31:10.127Z,0
2016-11-12T00:32:10.102Z,0
2016-11-12T00:33:10.084Z,0
2016-11-12T00:34:10.060Z,0
2016-11-12T00:35:10.027Z,0
2016-11-12T00:36:10.011Z,0
2016-11-12T00:37:10.298Z,0
2016-11-12T00:38:09.965Z,0
2016-11-12T00:39:10.255Z,0
2016-11-12T00:40:09.918Z,0
2016-11-12T00:41:09.943Z,0
2016-11-12T00:42:09.864Z,0
2016-11-12T00:43:09.896Z,0
2016-11-12T00:44:09.849Z,0
2016-11-12T00:45:09.796Z,0
2016-11-12T00:46:09.829Z,0
2016-11-12T00:47:10.059Z,0
2016-11-12T00:48:10.038Z,0
2016-11-12T00:49:09.705Z,0
2016-11-12T00:50:09.684Z,0
2016-11-12T00:51:10.281Z,0
2016-11-12T00:52:09.633Z,0
2016-11-12T00:53:09.606Z,0
2016-11-12T00:54:09.582Z,0
2016-11-12T00:55:09.565Z,0
2016-11-12T00:56:09.849Z,0
2016-11-12T00:57:09.830Z,0
2016-11-12T00:58:09.526Z,0
2016-11-12T00:59:09.469Z,0
2016-11-12T01:00:09.756Z,0
2016-11-12T01:01:09.424Z,0
2016-11-12T01:02:09.717Z,0
2016-11-12T01:03:09.378Z,0
2016-11-12T01:04:09.345Z,0
2016-11-12T01:05:09.319Z,0
2016-11-12T01:06:09.298Z,0
2016-11-12T01:07:09.310Z,0
2016-11-12T01:08:09.304Z,0
2016-11-12T01:09:09.235Z,0
2016-11-12T01:10:09.539Z,0
2016-11-12T01:11:09.499Z,0
2016-11-12T01:12:09.169Z,0
2016-11-12T01:13:09.137Z,0
2016-11-12T01:14:09.107Z,0
2016-11-12T01:15:09.413Z,0
2016-11-12T01:16:09.395Z,0
2016-11-12T01:17:09.045Z,0
2016-11-12T01:18:09.960Z,0
2016-11-12T01:19:09.308Z,0
2016-11-12T01:20:09.292Z,0
2016-11-12T01:21:08.943Z,0
2016-11-12T01:22:08.918Z,0
2016-11-12T01:23:08.898Z,0
2016-11-12T01:24:08.875Z,0
2016-11-12T01:25:08.862Z,0
2016-11-12T01:26:08.835Z,0
2016-11-12T01:27:08.811Z,0
2016-11-12T01:28:09.188Z,0
2016-11-12T01:29:08.758Z,0
2016-11-12T01:30:09.368Z,0
2016-11-12T01:31:08.711Z,0
2016-11-12T01:32:08.683Z,0
2016-11-12T01:33:08.661Z,0
2016-11-12T01:34:08.637Z,0
2016-11-12T01:35:08.622Z,0
2016-11-12T01:36:08.902Z,0
2016-11-12T01:37:08.875Z,0
2016-11-12T01:38:08.537Z,0
2016-11-12T01:39:08.517Z,0
2016-11-12T01:40:08.813Z,0
2016-11-12T01:41:08.502Z,0
2016-11-12T01:42:08.759Z,0
2016-11-12T01:43:08.474Z,0
2016-11-12T01:44:08.403Z,0
2016-11-12T01:45:08.376Z,0
2016-11-12T01:46:08.400Z,0
2016-11-12T01:47:08.640Z,0
2016-11-12T01:48:08.311Z,0
2016-11-12T01:49:08.599Z,0
2016-11-12T01:50:08.579Z,0
2016-11-12T01:51:08.238Z,0
2016-11-12T01:52:08.214Z,0
2016-11-12T01:53:08.186Z,0
2016-11-12T01:54:08.192Z,0
2016-11-12T01:55:08.147Z,0
2016-11-12T01:56:08.131Z,0
2016-11-12T01:57:08.128Z,0
2016-11-12T01:58:08.437Z,0
2016-11-12T01:59:08.041Z,0
2016-11-12T02:00:08.383Z,0
2016-11-12T02:01:08.310Z,0
2016-11-12T02:02:07.976Z,0
2016-11-12T02:03:08.261Z,0
2016-11-12T02:04:07.926Z,0
2016-11-12T02:05:07.909Z,0
2016-11-12T02:06:07.880Z,0
2016-11-12T02:07:08.181Z,0
2016-11-12T02:08:07.838Z,0
2016-11-12T02:09:07.821Z,0
2016-11-12T02:10:07.786Z,0
2016-11-12T02:11:07.808Z,0
2016-11-12T02:12:07.739Z,0
2016-11-12T02:13:07.710Z,0
2016-11-12T02:14:07.688Z,0
2016-11-12T02:15:07.983Z,0
2016-11-12T02:16:07.643Z,0
2016-11-12T02:17:07.610Z,0
2016-11-12T02:18:07.908Z,0
2016-11-12T02:19:07.584Z,0
2016-11-12T02:20:07.553Z,0
2016-11-12T02:21:07.523Z,0
2016-11-12T02:22:07.829Z,0
2016-11-12T02:23:07.476Z,0
2016-11-12T02:24:07.449Z,0
2016-11-12T02:25:07.431Z,0
2016-11-12T02:26:07.749Z,0
2016-11-12T02:27:07.698Z,0
2016-11-12T02:28:07.360Z,0
2016-11-12T02:29:07.342Z,0
2016-11-12T02:30:07.649Z,0
2016-11-12T02:31:07.298Z,0
2016-11-12T02:32:07.270Z,0
2016-11-12T02:33:07.568Z,0
2016-11-12T02:34:07.216Z,0
2016-11-12T02:35:07.200Z,0
2016-11-12T02:36:07.578Z,0
2016-11-12T02:37:07.472Z,0
2016-11-12T02:38:07.121Z,0
2016-11-12T02:39:07.101Z,0
2016-11-12T02:40:07.123Z,0
2016-11-12T02:41:07.369Z,0
2016-11-12T02:42:07.031Z,0
2016-11-12T02:43:07.007Z,0
2016-11-12T02:44:07.334Z,0
2016-11-12T02:45:07.275Z,0
2016-11-12T02:46:06.939Z,0
2016-11-12T02:47:07.545Z,0
2016-11-12T02:48:06.887Z,0
2016-11-12T02:49:07.494Z,0
2016-11-12T02:50:06.933Z,0
2016-11-12T02:51:06.816Z,0
2016-11-12T02:52:06.796Z,0
2016-11-12T02:53:07.084Z,0
2016-11-12T02:54:07.061Z,0
2016-11-12T02:55:06.800Z,0
2016-11-12T02:56:06.697Z,0
2016-11-12T02:57:06.682Z,0
2016-11-12T02:58:06.656Z,0
2016-11-12T02:59:06.945Z,0
2016-11-12T03:00:06.609Z,0
2016-11-12T03:01:06.584Z,0
2016-11-12T03:02:06.616Z,0
2016-11-12T03:03:06.533Z,0
2016-11-12T03:04:06.518Z,0
2016-11-12T03:05:06.482Z,0
2016-11-12T03:06:06.457Z,0
2016-11-12T03:07:06.436Z,0
2016-11-12T03:08:06.418Z,0
2016-11-12T03:09:06.396Z,0
2016-11-12T03:10:06.686Z,0
2016-11-12T03:11:06.358Z,0
2016-11-12T03:12:06.730Z,0
2016-11-12T03:13:06.928Z,0
2016-11-12T03:14:06.908Z,0
2016-11-12T03:15:06.876Z,0
2016-11-12T03:16:06.538Z,0
2016-11-12T03:17:06.204Z,0
2016-11-12T03:18:06.188Z,0
2016-11-12T03:19:06.470Z,0
2016-11-12T03:20:06.169Z,0
2016-11-12T03:21:06.434Z,0
2016-11-12T03:22:06.391Z,0
2016-11-12T03:23:06.423Z,0
2016-11-12T03:24:06.036Z,0
2016-11-12T03:25:06.327Z,0
2016-11-12T03:26:05.995Z,0
2016-11-12T03:27:05.964Z,0
2016-11-12T03:28:05.949Z,0
2016-11-12T03:29:06.129Z,0
2016-11-12T03:30:05.903Z,0
2016-11-12T03:31:06.234Z,0
2016-11-12T03:32:05.884Z,0
2016-11-12T03:33:06.456Z,0
2016-11-12T03:34:05.802Z,0
2016-11-12T03:35:05.778Z,0
2016-11-12T03:36:05.752Z,0
2016-11-12T03:37:06.098Z,0
2016-11-12T03:38:06.018Z,0
2016-11-12T03:39:05.678Z,0
2016-11-12T03:40:05.981Z,0
2016-11-12T03:41:05.949Z,0
2016-11-12T03:42:05.615Z,0
2016-11-12T03:43:05.590Z,0
2016-11-12T03:44:05.877Z,0
2016-11-12T03:45:05.541Z,0
2016-11-12T03:46:05.827Z,0
2016-11-12T03:47:05.492Z,0
2016-11-12T03:48:05.527Z,0
2016-11-12T03:49:05.771Z,0
2016-11-12T03:50:05.431Z,0
2016-11-12T03:51:05.401Z,0
2016-11-12T03:52:05.692Z,0
2016-11-12T03:53:05.407Z,0
2016-11-12T03:54:05.327Z,0
2016-11-12T03:55:05.305Z,0
2016-11-12T03:56:05.302Z,0
2016-11-12T03:57:05.573Z,0
2016-11-12T03:58:05.558Z,0
2016-11-12T03:59:05.213Z,0
2016-11-12T04:00:05.215Z,0
2016-11-12T04:01:05.481Z,0
2016-11-12T04:02:05.139Z,0
2016-11-12T04:03:05.434Z,0
2016-11-12T04:04:05.094Z,0
2016-11-12T04:05:05.078Z,0
2016-11-12T04:06:05.047Z,0
2016-11-12T04:07:05.650Z,0
2016-11-12T04:08:05.002Z,0
2016-11-12T04:09:05.290Z,0
2016-11-12T04:10:04.999Z,0
2016-11-12T04:11:05.566Z,0
2016-11-12T04:12:04.919Z,0
2016-11-12T04:13:04.880Z,0
2016-11-12T04:14:04.852Z,0
2016-11-12T04:15:04.839Z,0
2016-11-12T04:16:04.803Z,0
2016-11-12T04:17:05.144Z,0
2016-11-12T04:18:04.760Z,0
2016-11-12T04:19:04.774Z,0
2016-11-12T04:20:04.712Z,0
2016-11-12T04:21:04.688Z,0
2016-11-12T04:22:04.669Z,0
2016-11-12T04:23:04.954Z,0
2016-11-12T04:24:04.653Z,0
2016-11-12T04:25:04.591Z,0
2016-11-12T04:26:04.882Z,0
2016-11-12T04:27:04.545Z,0
2016-11-12T04:28:04.518Z,0
2016-11-12T04:29:04.501Z,0
2016-11-12T04:30:04.472Z,0
2016-11-12T04:31:04.455Z,0
2016-11-12T04:32:04.426Z,0
2016-11-12T04:33:04.452Z,0
2016-11-12T04:34:04.693Z,0
2016-11-12T04:35:04.362Z,0
2016-11-12T04:36:04.332Z,0
2016-11-12T04:37:04.306Z,0
2016-11-12T04:38:04.323Z,0
2016-11-12T04:39:04.253Z,0
2016-11-12T04:40:04.240Z,0
2016-11-12T04:41:04.578Z,0
2016-11-12T04:42:04.190Z,0
2016-11-12T04:43:04.178Z,0
2016-11-12T04:44:04.490Z,0
2016-11-12T04:45:04.117Z,0
2016-11-12T04:46:04.103Z,0
2016-11-12T04:47:04.109Z,0
2016-11-12T04:48:04.048Z,0
2016-11-12T04:49:04.675Z,0
2016-11-12T04:50:03.994Z,0
2016-11-12T04:51:04.286Z,0
2016-11-12T04:52:03.956Z,0
2016-11-12T04:53:03.937Z,0
2016-11-12T04:54:03.903Z,0
2016-11-12T04:55:03.881Z,0
2016-11-12T04:56:03.860Z,0
2016-11-12T04:57:03.832Z,0
2016-11-12T04:58:04.162Z,0
2016-11-12T04:59:03.788Z,0
2016-11-12T05:00:03.760Z,0
2016-11-12T05:01:03.743Z,0
2016-11-12T05:02:03.713Z,0
2016-11-12T05:03:03.697Z,0
2016-11-12T05:04:03.668Z,0
2016-11-12T05:05:04.261Z,0
2016-11-12T05:06:03.628Z,0
2016-11-12T05:07:03.956Z,0
2016-11-12T05:08:03.589Z,0
2016-11-12T05:09:04.183Z,0
2016-11-12T05:10:03.530Z,0
2016-11-12T05:11:03.810Z,0
2016-11-12T05:12:03.483Z,0
2016-11-12T05:13:03.450Z,0
2016-11-12T05:14:03.738Z,0
2016-11-12T05:15:03.403Z,0
2016-11-12T05:16:03.719Z,0
2016-11-12T05:17:03.349Z,0
2016-11-12T05:18:03.330Z,0
2016-11-12T05:19:03.308Z,0
2016-11-12T05:20:03.286Z,0
2016-11-12T05:21:03.257Z,0
2016-11-12T05:22:03.229Z,0
2016-11-12T05:23:03.211Z,0
2016-11-12T05:24:03.182Z,0
2016-11-12T05:25:03.163Z,0
2016-11-12T05:26:03.446Z,0
2016-11-12T05:27:03.111Z,0
2016-11-12T05:28:03.400Z,0
2016-11-12T05:29:03.575Z,0
2016-11-12T05:30:03.046Z,0
2016-11-12T05:31:03.014Z,0
2016-11-12T05:32:03.019Z,0
2016-11-12T05:33:02.998Z,0
2016-11-12T05:34:02.952Z,0
2016-11-12T05:35:02.954Z,0
2016-11-12T05:36:02.928Z,0
2016-11-12T05:37:02.900Z,0
2016-11-12T05:38:03.157Z,0
2016-11-12T05:39:03.144Z,0
2016-11-12T05:40:02.796Z,0
2016-11-12T05:41:03.090Z,0
2016-11-12T05:42:02.759Z,0
2016-11-12T05:43:02.727Z,0
2016-11-12T05:44:03.094Z,0
2016-11-12T05:45:02.999Z,0
2016-11-12T05:46:03.000Z,0
2016-11-12T05:47:02.636Z,0
2016-11-12T05:48:02.618Z,0
2016-11-12T05:49:02.896Z,0
2016-11-12T05:50:02.568Z,0
2016-11-12T05:51:03.160Z,0
2016-11-12T05:52:02.516Z,0
2016-11-12T05:53:02.520Z,0
2016-11-12T05:54:02.465Z,0
2016-11-12T05:55:02.759Z,0
2016-11-12T05:56:02.731Z,0
2016-11-12T05:57:02.391Z,0
2016-11-12T05:58:02.698Z,0
2016-11-12T05:59:02.659Z,0
2016-11-12T06:00:02.320Z,0
2016-11-12T06:01:02.293Z,0
2016-11-12T06:02:02.304Z,0
2016-11-12T06:03:02.251Z,0
2016-11-12T06:04:02.221Z,0
2016-11-12T06:05:02.197Z,0
2016-11-12T06:06:02.169Z,0
2016-11-12T06:07:02.149Z,0
2016-11-12T06:08:02.122Z,0
2016-11-12T06:09:02.099Z,0
2016-11-12T06:10:02.390Z,0
2016-11-12T06:11:02.057Z,0
2016-11-12T06:12:02.342Z,0
2016-11-12T06:13:02.002Z,0
2016-11-12T06:14:01.991Z,0
2016-11-12T06:15:01.956Z,0
2016-11-12T06:16:01.974Z,0
2016-11-12T06:17:01.923Z,0
2016-11-12T06:18:01.883Z,0
2016-11-12T06:19:01.863Z,0
2016-11-12T06:20:02.155Z,0
2016-11-12T06:21:01.819Z,0
2016-11-12T06:22:02.097Z,0
2016-11-12T06:23:01.773Z,0
2016-11-12T06:24:01.739Z,0
2016-11-12T06:25:01.722Z,0
2016-11-12T06:26:01.693Z,0
2016-11-12T06:27:01.685Z,0
2016-11-12T06:28:01.968Z,0
2016-11-12T06:29:01.630Z,0
2016-11-12T06:30:01.597Z,0
2016-11-12T06:31:01.603Z,5
2016-11-12T06:32:01.860Z,5
2016-11-12T06:33:02.162Z,5
2016-11-12T06:34:01.814Z,5
2016-11-12T06:35:01.475Z,5
2016-11-12T06:36:01.448Z,5
2016-11-12T06:37:02.053Z,5
2016-11-12T06:38:01.714Z,5
2016-11-12T06:39:01.381Z,10
2016-11-12T06:40:01.702Z,10
2016-11-12T06:41:01.333Z,10
2016-11-12T06:42:01.307Z,10
2016-11-12T06:43:01.595Z,10
2016-11-12T06:44:01.266Z,10
2016-11-12T06:45:01.234Z,10
2016-11-12T06:46:01.525Z,15
2016-11-12T06:47:01.184Z,15
2016-11-12T06:48:01.186Z,15
2016-11-12T06:49:01.458Z,15
2016-11-12T06:50:01.117Z,15
2016-11-12T06:51:01.087Z,15
2016-11-12T06:52:01.067Z,15
2016-11-12T06:53:01.044Z,15
2016-11-12T06:54:01.022Z,20
2016-11-12T06:55:00.992Z,20
2016-11-12T06:56:01.312Z,20
2016-11-12T06:57:00.950Z,20
2016-11-12T06:58:01.581Z,20
2016-11-12T06:59:00.908Z,20
2016-11-12T07:00:00.885Z,20
2016-11-12T07:01:01.834Z,20
2016-11-12T07:02:00.838Z,25
2016-11-12T07:03:00.803Z,25
2016-11-12T07:04:00.785Z,25
2016-11-12T07:05:00.776Z,25
2016-11-12T07:06:00.734Z,25
2016-11-12T07:07:00.714Z,25
2016-11-12T07:08:00.684Z,25
2016-11-12T07:09:00.659Z,30
2016-11-12T07:10:00.636Z,30
2016-11-12T07:11:00.616Z,30
2016-11-12T07:12:00.605Z,30
2016-11-12T07:13:00.580Z,30
2016-11-12T07:14:00.541Z,35
2016-11-12T07:15:00.519Z,35
2016-11-12T07:16:00.508Z,35
2016-11-12T07:17:00.476Z,35
2016-11-12T07:18:00.453Z,35
2016-11-12T07:19:00.425Z,40
2016-11-12T07:20:00.396Z,40
2016-11-12T07:21:00.728Z,40
2016-11-12T07:22:00.355Z,40
2016-11-12T07:23:00.645Z,40
2016-11-12T07:24:00.320Z,45
2016-11-12T07:25:00.286Z,45
2016-11-12T07:26:00.584Z,45
2016-11-12T07:27:00.241Z,45
2016-11-12T07:28:00.220Z,45
2016-11-12T07:29:00.703Z,50
2016-11-12T07:30:00.168Z,50
2016-11-12T07:31:00.153Z,45
2016-11-12T07:32:00.131Z,45
2016-11-12T07:33:00.415Z,45
2016-11-12T07:34:00.075Z,45
2016-11-12T07:35:00.054Z,50
2016-11-12T07:36:00.031Z,50
2016-11-12T07:37:00.316Z,50
2016-11-12T07:38:00.304Z,50
2016-11-12T07:38:59.961Z,50
2016-11-12T07:39:59.936Z,50
2016-11-12T07:40:59.919Z,50
2016-11-12T07:41:59.897Z,50
2016-11-12T07:42:59.868Z,50
2016-11-12T07:43:59.846Z,50
2016-11-12T07:44:59.818Z,50
2016-11-12T07:46:00.111Z,50
2016-11-12T07:46:59.775Z,50
2016-11-12T07:47:59.751Z,50
2016-11-12T07:49:00.041Z,55
2016-11-12T07:50:00.016Z,55
2016-11-12T07:50:59.693Z,55
2016-11-12T07:51:59.982Z,55
2016-11-12T07:52:59.965Z,55
2016-11-12T07:53:59.715Z,60
2016-11-12T07:54:59.905Z,60
2016-11-12T07:55:59.882Z,65
2016-11-12T07:56:59.544Z,65
2016-11-12T07:57:59.514Z,65
2016-11-12T07:58:59.490Z,65
2016-11-12T07:59:59.471Z,65
2016-11-12T08:00:59.765Z,70
2016-11-12T08:01:59.738Z,70
2016-11-12T08:02:59.401Z,70
2016-11-12T08:03:59.689Z,70
2016-11-12T08:04:59.354Z,75
2016-11-12T08:05:59.330Z,75
2016-11-12T08:06:59.621Z,75
2016-11-12T08:07:59.664Z,75
2016-11-12T08:08:59.261Z,80
2016-11-12T08:09:59.239Z,80
2016-11-12T08:10:59.527Z,85
2016-11-12T08:11:59.188Z,90
2016-11-12T08:12:59.168Z,85
2016-11-12T08:13:59.153Z,90
2016-11-12T08:14:59.127Z,90
2016-11-12T08:15:59.142Z,90
2016-11-12T08:16:59.081Z,90
2016-11-12T08:17:59.059Z,95
2016-11-12T08:18:59.025Z,95
2016-11-12T08:19:59.654Z,95
2016-11-12T08:20:58.992Z,100
2016-11-12T08:21:59.272Z,100
2016-11-12T08:22:58.943Z,100
2016-11-12T08:23:58.923Z,105
2016-11-12T08:24:58.898Z,100
2016-11-12T08:25:59.181Z,100
2016-11-12T08:26:58.854Z,100
2016-11-12T08:27:58.822Z,105
2016-11-12T08:28:58.810Z,110
2016-11-12T08:29:59.447Z,110
2016-11-12T08:30:58.758Z,110
2016-11-12T08:31:59.053Z,110
2016-11-12T08:32:58.715Z,110
2016-11-12T08:33:58.691Z,115
2016-11-12T08:34:58.672Z,115
2016-11-12T08:35:59.310Z,115
2016-11-12T08:36:58.625Z,120
2016-11-12T08:37:58.612Z,120
2016-11-12T08:38:58.581Z,120
2016-11-12T08:39:58.557Z,125
2016-11-12T08:40:58.530Z,125
2016-11-12T08:41:58.511Z,125
2016-11-12T08:42:58.493Z,130
2016-11-12T08:43:58.775Z,130
2016-11-12T08:44:58.444Z,135
2016-11-12T08:45:58.426Z,135
2016-11-12T08:46:58.400Z,135
2016-11-12T08:47:58.387Z,135
2016-11-12T08:48:58.357Z,135
2016-11-12T08:49:58.669Z,130
2016-11-12T08:50:58.639Z,130
2016-11-12T08:51:58.294Z,125
2016-11-12T08:52:58.268Z,125
2016-11-12T08:53:58.247Z,125
2016-11-12T08:54:58.544Z,120
2016-11-12T08:55:58.828Z,120
2016-11-12T08:56:58.180Z,120
2016-11-12T08:57:58.163Z,115
2016-11-12T08:58:58.453Z,115
2016-11-12T08:59:58.426Z,120
2016-11-12T09:00:58.094Z,120
2016-11-12T09:01:58.079Z,120
2016-11-12T09:02:58.051Z,120
2016-11-12T09:03:58.026Z,125
2016-11-12T09:04:58.007Z,130
2016-11-12T09:05:58.637Z,135
2016-11-12T09:06:57.963Z,145
2016-11-12T09:07:58.254Z,150
2016-11-12T09:08:58.267Z,150
2016-11-12T09:09:57.905Z,145
2016-11-12T09:10:57.893Z,145
2016-11-12T09:11:58.178Z,145
2016-11-12T09:12:57.841Z,145
2016-11-12T09:13:57.823Z,145
2016-11-12T09:14:58.108Z,155
2016-11-12T09:15:57.806Z,150
2016-11-12T09:16:57.756Z,160
2016-11-12T09:17:57.734Z,245
2016-11-12T09:18:57.707Z,310
2016-11-12T09:19:57.687Z,265
2016-11-12T09:20:57.978Z,210
2016-11-12T09:21:57.642Z,160
2016-11-12T09:22:57.807Z,180
2016-11-12T09:23:57.604Z,205
2016-11-12T09:24:57.896Z,235
2016-11-12T09:25:57.877Z,275
2016-11-12T09:26:57.895Z,300
2016-11-12T09:27:57.522Z,230
2016-11-12T09:28:57.702Z,165
2016-11-12T09:29:58.104Z,165
2016-11-12T09:30:57.456Z,165
2016-11-12T09:31:57.440Z,160
2016-11-12T09:32:57.736Z,160
2016-11-12T09:33:57.405Z,160
2016-11-12T09:34:57.438Z,160
2016-11-12T09:35:57.360Z,160
2016-11-12T09:36:57.659Z,175
2016-11-12T09:37:57.320Z,215
2016-11-12T09:38:57.299Z,250
2016-11-12T09:39:57.595Z,260
2016-11-12T09:40:57.265Z,245
2016-11-12T09:41:57.249Z,255
2016-11-12T09:42:57.228Z,285
2016-11-12T09:43:57.330Z,360
2016-11-12T09:44:57.817Z,340
2016-11-12T09:45:57.168Z,290
2016-11-12T09:46:57.482Z,300
2016-11-12T09:47:57.141Z,325
2016-11-12T09:48:57.137Z,340
2016-11-12T09:49:57.094Z,375
2016-11-12T09:50:57.089Z,430
2016-11-12T09:51:57.057Z,410
2016-11-12T09:52:57.046Z,400
2016-11-12T09:53:57.360Z,390
2016-11-12T09:54:57.009Z,360
2016-11-12T09:55:56.994Z,300
2016-11-12T09:56:56.977Z,240
2016-11-12T09:57:56.958Z,210
2016-11-12T09:58:57.262Z,215
2016-11-12T09:59:56.923Z,230
2016-11-12T10:00:57.220Z,280
2016-11-12T10:01:56.888Z,320
2016-11-12T10:02:56.878Z,415
2016-11-12T10:03:57.169Z,315
2016-11-12T10:04:56.836Z,405
2016-11-12T10:05:57.131Z,360
2016-11-12T10:06:56.799Z,410
2016-11-12T10:07:56.796Z,495
2016-11-12T10:08:57.082Z,465
2016-11-12T10:09:57.071Z,410
2016-11-12T10:10:56.742Z,385
2016-11-12T10:11:56.723Z,390
2016-11-12T10:12:56.705Z,425
2016-11-12T10:13:57.040Z,380
2016-11-12T10:14:56.682Z,395
2016-11-12T10:15:56.689Z,380
2016-11-12T10:16:56.960Z,390
2016-11-12T10:17:56.639Z,370
2016-11-12T10:18:56.625Z,370
2016-11-12T10:19:56.603Z,375
2016-11-12T10:20:56.600Z,365
2016-11-12T10:21:56.886Z,360
2016-11-12T10:22:56.571Z,370
2016-11-12T10:23:56.544Z,345
2016-11-12T10:24:56.532Z,335
2016-11-12T10:25:56.519Z,330
2016-11-12T10:26:56.846Z,280
2016-11-12T10:27:56.829Z,245
2016-11-12T10:28:56.786Z,270
2016-11-12T10:29:56.772Z,330
2016-11-12T10:30:56.438Z,325
2016-11-12T10:31:56.426Z,350
2016-11-12T10:32:56.749Z,365
2016-11-12T10:33:56.420Z,350
2016-11-12T10:34:56.389Z,410
2016-11-12T10:35:56.367Z,395
2016-11-12T10:36:56.353Z,435
2016-11-12T10:37:56.349Z,440
2016-11-12T10:38:56.650Z,445
2016-11-12T10:39:56.311Z,365
2016-11-12T10:40:56.297Z,265
2016-11-12T10:41:56.279Z,265
2016-11-12T10:42:56.278Z,305
2016-11-12T10:43:56.260Z,375
2016-11-12T10:44:56.240Z,375
2016-11-12T10:45:56.223Z,350
2016-11-12T10:46:56.521Z,395
2016-11-12T10:47:56.200Z,435
2016-11-12T10:48:56.185Z,385
2016-11-12T10:49:56.167Z,360
2016-11-12T10:50:56.155Z,380
2016-11-12T10:51:56.138Z,405
2016-11-12T10:52:56.171Z,365
2016-11-12T10:53:56.111Z,325
2016-11-12T10:54:56.097Z,340
2016-11-12T10:55:56.400Z,355
2016-11-12T10:56:56.078Z,385
2016-11-12T10:57:56.057Z,470
2016-11-12T10:58:56.359Z,490
2016-11-12T10:59:56.036Z,480
2016-11-12T11:00:56.331Z,490
2016-11-12T11:01:56.005Z,570
2016-11-12T11:02:55.991Z,620
2016-11-12T11:03:55.983Z,615
2016-11-12T11:04:55.964Z,600
2016-11-12T11:05:55.951Z,590
2016-11-12T11:06:55.937Z,580
2016-11-12T11:07:56.240Z,590
2016-11-12T11:08:56.228Z,565
2016-11-12T11:09:56.260Z,590
2016-11-12T11:10:55.928Z,650
2016-11-12T11:11:55.882Z,635
2016-11-12T11:12:55.891Z,630
2016-11-12T11:13:55.864Z,600
2016-11-12T11:14:55.845Z,605
2016-11-12T11:15:56.149Z,565
2016-11-12T11:16:55.849Z,550
2016-11-12T11:17:55.814Z,450
2016-11-12T11:18:55.817Z,295
2016-11-12T11:19:55.788Z,245
2016-11-12T11:20:55.777Z,235
2016-11-12T11:21:55.772Z,235
2016-11-12T11:22:56.385Z,235
2016-11-12T11:23:55.745Z,235
2016-11-12T11:24:55.734Z,230
2016-11-12T11:25:56.038Z,225
2016-11-12T11:26:56.083Z,220
2016-11-12T11:27:55.703Z,220
2016-11-12T11:28:55.894Z,225
2016-11-12T11:29:55.675Z,235
2016-11-12T11:30:55.980Z,250
2016-11-12T11:31:55.656Z,240
2016-11-12T11:32:55.636Z,230
2016-11-12T11:33:55.666Z,230
2016-11-12T11:34:55.637Z,230
2016-11-12T11:35:55.925Z,250
2016-11-12T11:36:55.592Z,275
2016-11-12T11:37:55.896Z,285
2016-11-12T11:38:55.877Z,335
2016-11-12T11:39:55.540Z,295
2016-11-12T11:40:55.575Z,305
2016-11-12T11:41:55.510Z,305
2016-11-12T11:42:55.496Z,325
2016-11-12T11:43:55.796Z,410
2016-11-12T11:44:55.477Z,560
2016-11-12T11:45:55.459Z,630
2016-11-12T11:46:55.445Z,620
2016-11-12T11:47:55.752Z,620
2016-11-12T11:48:55.419Z,615
2016-11-12T11:49:55.718Z,625
2016-11-12T11:50:55.392Z,625
2016-11-12T11:51:55.411Z,620
2016-11-12T11:52:55.361Z,615
2016-11-12T11:53:55.345Z,635
2016-11-12T11:54:55.651Z,640
2016-11-12T11:55:55.330Z,630
2016-11-12T11:56:55.313Z,615
2016-11-12T11:57:55.335Z,620
2016-11-12T11:58:55.286Z,625
2016-11-12T11:59:55.633Z,620
2016-11-12T12:00:55.268Z,620
2016-11-12T12:01:55.280Z,620
2016-11-12T12:02:55.880Z,605
2016-11-12T12:03:55.562Z,615
2016-11-12T12:04:55.550Z,620
2016-11-12T12:05:55.222Z,630
2016-11-12T12:06:55.207Z,605
2016-11-12T12:07:55.200Z,600
2016-11-12T12:08:55.203Z,560
2016-11-12T12:09:55.508Z,540
2016-11-12T12:10:55.175Z,540
2016-11-12T12:11:55.166Z,545
2016-11-12T12:12:55.158Z,565
2016-11-12T12:13:55.153Z,580
2016-11-12T12:14:55.136Z,585
2016-11-12T12:15:55.131Z,570
2016-11-12T12:16:55.442Z,500
2016-11-12T12:17:55.117Z,530
2016-11-12T12:18:55.139Z,540
2016-11-12T12:19:55.090Z,510
2016-11-12T12:20:55.083Z,530
2016-11-12T12:21:55.080Z,525
2016-11-12T12:22:55.103Z,515
2016-11-12T12:23:55.061Z,535
2016-11-12T12:24:55.401Z,540
2016-11-12T12:25:55.043Z,555
2016-11-12T12:26:55.042Z,530
2016-11-12T12:27:55.042Z,550
2016-11-12T12:28:55.023Z,535
2016-11-12T12:29:55.640Z,550
2016-11-12T12:30:55.009Z,550
2016-11-12T12:31:55.474Z,530
2016-11-12T12:32:54.990Z,525
2016-11-12T12:33:55.298Z,520
2016-11-12T12:34:54.975Z,525
2016-11-12T12:35:54.967Z,530
2016-11-12T12:36:54.963Z,530
2016-11-12T12:37:54.951Z,530
2016-11-12T12:38:54.945Z,535
2016-11-12T12:39:54.953Z,530
2016-11-12T12:40:54.924Z,525
2016-11-12T12:41:54.924Z,515
2016-11-12T12:42:54.919Z,510
2016-11-12T12:43:54.905Z,515
2016-11-12T12:44:54.899Z,500
2016-11-12T12:45:54.896Z,480
2016-11-12T12:46:54.883Z,460
2016-11-12T12:47:54.882Z,465
2016-11-12T12:48:54.877Z,465
2016-11-12T12:49:54.930Z,465
2016-11-12T12:50:54.878Z,465
2016-11-12T12:51:54.868Z,485
2016-11-12T12:52:55.197Z,480
2016-11-12T12:53:54.844Z,485
2016-11-12T12:54:54.835Z,475
2016-11-12T12:55:54.826Z,465
2016-11-12T12:56:54.822Z,475
2016-11-12T12:57:54.812Z,465
2016-11-12T12:58:54.808Z,465
2016-11-12T12:59:54.801Z,460
2016-11-12T13:00:54.822Z,450
2016-11-12T13:01:55.111Z,450
2016-11-12T13:02:55.091Z,455
2016-11-12T13:03:55.112Z,445
2016-11-12T13:04:54.764Z,445
2016-11-12T13:05:55.077Z,440
2016-11-12T13:06:54.790Z,425
2016-11-12T13:07:54.756Z,430
2016-11-12T13:08:54.738Z,425
2016-11-12T13:09:55.038Z,430
2016-11-12T13:10:54.726Z,440
2016-11-12T13:11:54.715Z,445
2016-11-12T13:12:54.714Z,455
2016-11-12T13:13:54.704Z,450
2016-11-12T13:14:54.727Z,460
2016-11-12T13:15:55.001Z,450
2016-11-12T13:16:54.702Z,430
2016-11-12T13:17:54.673Z,425
2016-11-12T13:18:54.665Z,420
2016-11-12T13:19:54.660Z,425
2016-11-12T13:20:54.656Z,420
2016-11-12T13:21:54.648Z,410
2016-11-12T13:22:54.639Z,405
2016-11-12T13:23:54.666Z,405
2016-11-12T13:24:54.938Z,405
2016-11-12T13:25:54.933Z,395
2016-11-12T13:26:54.932Z,400
2016-11-12T13:27:54.609Z,400
2016-11-12T13:28:54.803Z,400
2016-11-12T13:29:54.910Z,390
2016-11-12T13:30:54.597Z,390
2016-11-12T13:31:54.898Z,380
2016-11-12T13:32:54.886Z,365
2016-11-12T13:33:54.561Z,325
2016-11-12T13:34:54.574Z,300
2016-11-12T13:35:54.556Z,280
2016-11-12T13:36:54.550Z,260
2016-11-12T13:37:54.555Z,230
2016-11-12T13:38:54.534Z,220
2016-11-12T13:39:54.564Z,250
2016-11-12T13:40:54.521Z,245
2016-11-12T13:41:54.837Z,220
2016-11-12T13:42:55.133Z,190
2016-11-12T13:43:54.492Z,180
2016-11-12T13:44:54.799Z,175
2016-11-12T13:45:54.793Z,180
2016-11-12T13:46:54.466Z,195
2016-11-12T13:47:54.778Z,190
2016-11-12T13:48:54.451Z,195
2016-11-12T13:49:54.438Z,205
2016-11-12T13:50:54.432Z,225
2016-11-12T13:51:54.424Z,240
2016-11-12T13:52:54.487Z,240
2016-11-12T13:53:54.398Z,225
2016-11-12T13:54:54.714Z,200
2016-11-12T13:55:54.697Z,185
2016-11-12T13:56:54.384Z,195
2016-11-12T13:57:54.367Z,180
2016-11-12T13:58:54.674Z,175
2016-11-12T13:59:54.340Z,160
2016-11-12T14:00:54.328Z,155
2016-11-12T14:01:54.317Z,160
2016-11-12T14:02:54.302Z,155
2016-11-12T14:03:54.289Z,150
2016-11-12T14:04:54.299Z,150
2016-11-12T14:05:54.273Z,145
2016-11-12T14:06:54.256Z,135
2016-11-12T14:07:54.246Z,145
2016-11-12T14:08:54.240Z,140
2016-11-12T14:09:54.218Z,135
2016-11-12T14:10:54.232Z,120
2016-11-12T14:11:54.191Z,115
2016-11-12T14:12:54.175Z,100
2016-11-12T14:13:54.164Z,100
2016-11-12T14:14:54.464Z,100
2016-11-12T14:15:54.148Z,90
2016-11-12T14:16:54.477Z,85